METARs

EEEI - Ämari Air Base

EEEI 181850Z 30008KT 9999 BKN022 M04/M08 Q1001 R24/590195 NOSIG

EEKA - Kärdla

EEKA 181550Z 32018KT 9999 -SN SCT009 BKN015 M01/M04 Q1000

EEKE - Kuressaare

EEKE 190250Z AUTO 28005KT 240V330 9999NDV OVC040 M03/M03 Q1007

EEPU - Pärnu

EEPU 181350Z 24010KT 9999 BKN045 M02/M04 Q0999

EETN - Lennart Meri Tallinn

EETN 190250Z 19002KT 9999 FEW016 BKN038 M12/M13 Q1005 R08/450295

EETU - Tartu

EETU 190250Z 27009KT CAVOK M07/M10 Q1005

Sign In

ATC Booking

currently no ATC Bookings...